Time;durP1;ratioP1;P1;durP2;ratioP2;P2;SDS_P1;SDS_P2;PMS_P1;PMS_P2;Temp;Humidity;BMP_temperature;BMP_pressure;BME280_temperature;BME280_humidity;BME280_pressure;Samples;Min_cycle;Max_cycle;Signal;HPM_P1;HPM_P2
2020/12/05 00:01:12;;;;;;;2.50;2.30;;;;;;;;;;6306163;22;19996;-87
2020/12/05 00:03:38;;;;;;;3.42;2.20;;;;;;;;;;6306554;22;19999;-86
2020/12/05 00:06:04;;;;;;;3.17;1.73;;;;;;;;;;6304969;22;20392;-86
2020/12/05 00:08:30;;;;;;;4.07;2.72;;;;;;;;;;6305825;22;20030;-86
2020/12/05 00:10:56;;;;;;;2.83;2.33;;;;;;;;;;6306499;22;20074;-87
2020/12/05 00:13:22;;;;;;;2.42;2.13;;;;;;;;;;6305969;22;20010;-86
2020/12/05 00:15:48;;;;;;;2.35;2.08;;;;;;;;;;6305350;22;20034;-87
2020/12/05 00:18:14;;;;;;;4.80;3.13;;;;;;;;;;6307599;22;20003;-86
2020/12/05 00:20:40;;;;;;;3.78;2.25;;;;;;;;;;6308166;22;20070;-86
2020/12/05 00:23:06;;;;;;;2.47;2.28;;;;;;;;;;6307960;22;20422;-86
2020/12/05 00:25:33;;;;;;;4.78;3.10;;;;;;;;;;6306246;22;20081;-87
2020/12/05 00:27:59;;;;;;;3.13;1.85;;;;;;;;;;6306021;22;19999;-86
2020/12/05 00:30:28;;;;;;;2.25;2.00;;;;;;;;;;6305230;22;20100;-86
2020/12/05 00:32:57;;;;;;;3.17;2.08;;;;;;;;;;6307649;22;20021;-86
2020/12/05 00:35:23;;;;;;;3.65;2.58;;;;;;;;;;6306071;22;20010;-86
2020/12/05 00:37:49;;;;;;;3.20;2.50;;;;;;;;;;6306133;22;20381;-87
2020/12/05 00:40:15;;;;;;;3.58;2.28;;;;;;;;;;6307755;22;20331;-86
2020/12/05 00:42:41;;;;;;;3.22;2.92;;;;;;;;;;6305839;22;20379;-86
2020/12/05 00:45:07;;;;;;;4.70;3.05;;;;;;;;;;6307890;22;20002;-85
2020/12/05 00:47:33;;;;;;;3.10;2.30;;;;;;;;;;6306319;22;19991;-86
2020/12/05 00:49:59;;;;;;;3.15;2.35;;;;;;;;;;6306691;22;20003;-86
2020/12/05 00:52:25;;;;;;;3.47;2.70;;;;;;;;;;6307490;22;19999;-87
2020/12/05 00:54:51;;;;;;;3.38;2.55;;;;;;;;;;6305447;22;20444;-86
2020/12/05 00:57:17;;;;;;;3.30;1.92;;;;;;;;;;6305717;22;20320;-87
2020/12/05 00:59:43;;;;;;;2.72;1.90;;;;;;;;;;6305459;22;20003;-86
2020/12/05 01:02:10;;;;;;;3.40;2.90;;;;;;;;;;6307621;22;20430;-86
2020/12/05 01:04:36;;;;;;;2.63;2.33;;;;;;;;;;6305950;22;20007;-86
2020/12/05 01:07:02;;;;;;;2.83;2.42;;;;;;;;;;6307786;22;20010;-86
2020/12/05 01:09:28;;;;;;;3.45;2.47;;;;;;;;;;6305979;22;19999;-86
2020/12/05 01:11:54;;;;;;;2.65;2.25;;;;;;;;;;6305897;22;20027;-86
2020/12/05 01:14:20;;;;;;;4.45;3.42;;;;;;;;;;6305848;22;20061;-86
2020/12/05 01:16:46;;;;;;;2.10;1.90;;;;;;;;;;6307485;22;20003;-86
2020/12/05 01:19:12;;;;;;;4.22;2.42;;;;;;;;;;6307560;22;20007;-87
2020/12/05 01:21:38;;;;;;;2.42;2.22;;;;;;;;;;6305735;22;20396;-86
2020/12/05 01:24:04;;;;;;;3.70;2.22;;;;;;;;;;6307669;22;20006;-86
2020/12/05 01:26:31;;;;;;;3.15;2.60;;;;;;;;;;6306028;22;20038;-87
2020/12/05 01:28:57;;;;;;;4.45;2.47;;;;;;;;;;6306030;22;20464;-86
2020/12/05 01:31:23;;;;;;;3.55;2.20;;;;;;;;;;6305668;22;19999;-87
2020/12/05 01:33:49;;;;;;;2.45;2.15;;;;;;;;;;6305474;22;20462;-86
2020/12/05 01:36:15;;;;;;;2.03;1.80;;;;;;;;;;6306251;22;20347;-86
2020/12/05 01:38:41;;;;;;;3.30;2.10;;;;;;;;;;6307261;22;20029;-86
2020/12/05 01:41:07;;;;;;;3.85;3.03;;;;;;;;;;6305993;22;20003;-86
2020/12/05 01:43:33;;;;;;;3.38;2.75;;;;;;;;;;6307224;22;20003;-86
2020/12/05 01:46:00;;;;;;;2.67;1.38;;;;;;;;;;6307426;22;20007;-87
2020/12/05 01:48:27;;;;;;;3.00;2.10;;;;;;;;;;6305145;22;20401;-86
2020/12/05 01:50:54;;;;;;;2.50;2.30;;;;;;;;;;6307004;22;20009;-87
2020/12/05 01:53:20;;;;;;;2.53;2.33;;;;;;;;;;6305477;22;20003;-86
2020/12/05 01:55:46;;;;;;;2.92;2.17;;;;;;;;;;6305731;22;20007;-87
2020/12/05 01:58:13;;;;;;;3.42;1.58;;;;;;;;;;6305350;22;20007;-86
2020/12/05 02:00:40;;;;;;;2.60;2.13;;;;;;;;;;6307109;22;20000;-86
2020/12/05 02:03:06;;;;;;;2.85;2.03;;;;;;;;;;6305407;22;20010;-86
2020/12/05 02:05:51;;;;;;;2.47;2.05;;;;;;;;;;6306587;22;19995;-86
2020/12/05 02:08:20;;;;;;;1.60;1.50;;;;;;;;;;6307149;22;19999;-86
2020/12/05 02:10:48;;;;;;;1.85;1.60;;;;;;;;;;6306722;22;20006;-86
2020/12/05 02:13:20;;;;;;;2.83;2.53;;;;;;;;;;6305068;22;19999;-86
2020/12/05 02:15:48;;;;;;;2.03;1.58;;;;;;;;;;6305802;22;20003;-87
2020/12/05 02:18:14;;;;;;;2.20;1.77;;;;;;;;;;6306553;22;19996;-86
2020/12/05 02:20:40;;;;;;;1.63;1.20;;;;;;;;;;6306793;22;19995;-86
2020/12/05 02:23:13;;;;;;;1.55;1.17;;;;;;;;;;6305478;22;20033;-86
2020/12/05 02:25:42;;;;;;;2.00;1.38;;;;;;;;;;6304601;22;20082;-87
2020/12/05 02:28:08;;;;;;;1.45;1.35;;;;;;;;;;6307117;22;20118;-86
2020/12/05 02:30:35;;;;;;;5.35;1.30;;;;;;;;;;6307041;22;20002;-86
2020/12/05 02:33:01;;;;;;;1.35;1.20;;;;;;;;;;6306440;22;20015;-86
2020/12/05 02:35:28;;;;;;;1.25;1.15;;;;;;;;;;6305129;22;19999;-86
2020/12/05 02:37:57;;;;;;;1.60;1.30;;;;;;;;;;6306381;22;19999;-86
2020/12/05 02:40:23;;;;;;;2.60;1.30;;;;;;;;;;6306367;22;20071;-87
2020/12/05 02:42:49;;;;;;;3.15;2.20;;;;;;;;;;6304605;22;19999;-86
2020/12/05 02:45:16;;;;;;;3.03;1.85;;;;;;;;;;6306768;22;20056;-86
2020/12/05 02:47:42;;;;;;;2.03;1.83;;;;;;;;;;6306318;22;20004;-86
2020/12/05 02:50:08;;;;;;;1.92;1.17;;;;;;;;;;6306577;22;20006;-86
2020/12/05 02:52:34;;;;;;;2.25;2.05;;;;;;;;;;6304364;22;20010;-86
2020/12/05 02:55:00;;;;;;;1.58;1.13;;;;;;;;;;6306749;22;19999;-86
2020/12/05 02:57:26;;;;;;;1.63;1.05;;;;;;;;;;6306446;22;20009;-86
2020/12/05 02:59:52;;;;;;;2.42;1.48;;;;;;;;;;6306591;22;20312;-86
2020/12/05 03:02:18;;;;;;;2.03;1.92;;;;;;;;;;6306437;22;19995;-86
2020/12/05 03:04:44;;;;;;;2.67;1.50;;;;;;;;;;6303871;22;20004;-86
2020/12/05 03:07:11;;;;;;;1.88;1.65;;;;;;;;;;6306212;22;20026;-86
2020/12/05 03:09:37;;;;;;;1.50;1.38;;;;;;;;;;6306124;22;20005;-86
2020/12/05 03:12:03;;;;;;;1.65;1.23;;;;;;;;;;6306363;22;20003;-86
2020/12/05 03:14:29;;;;;;;1.08;0.85;;;;;;;;;;6304077;22;20007;-86
2020/12/05 03:16:55;;;;;;;2.22;1.23;;;;;;;;;;6304529;22;20370;-86
2020/12/05 03:19:21;;;;;;;1.08;0.90;;;;;;;;;;6304576;22;20010;-86
2020/12/05 03:21:47;;;;;;;1.83;1.15;;;;;;;;;;6304567;22;20082;-87
2020/12/05 03:24:13;;;;;;;1.70;1.40;;;;;;;;;;6305740;22;20458;-86
2020/12/05 03:26:39;;;;;;;1.60;1.20;;;;;;;;;;6304240;22;20063;-86
2020/12/05 03:29:05;;;;;;;1.48;1.20;;;;;;;;;;6303424;22;20007;-86
2020/12/05 03:31:44;;;;;;;1.70;1.05;;;;;;;;;;6306091;22;20074;-86
2020/12/05 03:34:10;;;;;;;1.40;1.30;;;;;;;;;;6305063;22;20434;-86
2020/12/05 03:36:37;;;;;;;1.88;1.65;;;;;;;;;;6304386;22;20084;-86
2020/12/05 03:39:03;;;;;;;1.15;1.10;;;;;;;;;;6304355;22;20008;-86
2020/12/05 03:41:29;;;;;;;0.95;0.80;;;;;;;;;;6305664;22;20023;-86
2020/12/05 03:43:55;;;;;;;1.55;1.27;;;;;;;;;;6304227;22;20014;-86
2020/12/05 03:46:22;;;;;;;2.53;1.30;;;;;;;;;;6305050;22;20026;-86
2020/12/05 03:48:48;;;;;;;1.30;1.20;;;;;;;;;;6305257;22;20438;-87
2020/12/05 03:51:14;;;;;;;1.05;1.02;;;;;;;;;;6308218;22;20410;-86
2020/12/05 03:53:40;;;;;;;1.63;1.20;;;;;;;;;;6308376;22;20041;-86
2020/12/05 03:56:06;;;;;;;1.45;1.25;;;;;;;;;;6305759;22;20008;-86
2020/12/05 03:58:32;;;;;;;1.58;0.82;;;;;;;;;;6305935;22;20007;-87
2020/12/05 04:00:58;;;;;;;2.20;1.35;;;;;;;;;;6308192;22;19995;-86
2020/12/05 04:03:24;;;;;;;1.48;0.98;;;;;;;;;;6307927;22;20007;-86
2020/12/05 04:05:50;;;;;;;1.35;1.20;;;;;;;;;;6308281;22;20427;-86
2020/12/05 04:08:16;;;;;;;1.15;1.00;;;;;;;;;;6305935;22;19999;-86
2020/12/05 04:10:42;;;;;;;1.77;1.15;;;;;;;;;;6307308;22;19995;-87
2020/12/05 04:13:08;;;;;;;1.33;1.23;;;;;;;;;;6306161;22;20316;-86
2020/12/05 04:15:34;;;;;;;1.42;1.00;;;;;;;;;;6307930;22;19999;-86
2020/12/05 04:18:00;;;;;;;0.90;0.75;;;;;;;;;;6305565;22;20002;-86
2020/12/05 04:20:26;;;;;;;0.98;0.93;;;;;;;;;;6305861;22;20008;-87
2020/12/05 04:22:54;;;;;;;0.80;0.80;;;;;;;;;;6308093;22;19999;-86
2020/12/05 04:25:21;;;;;;;1.30;1.10;;;;;;;;;;6307965;22;20004;-87
2020/12/05 04:27:47;;;;;;;1.23;1.08;;;;;;;;;;6305155;22;20085;-86
2020/12/05 04:30:13;;;;;;;1.20;1.10;;;;;;;;;;6306924;22;20011;-87
2020/12/05 04:32:40;;;;;;;2.47;1.38;;;;;;;;;;6307562;22;20077;-86
2020/12/05 04:35:06;;;;;;;1.52;1.25;;;;;;;;;;6307453;22;20062;-86
2020/12/05 04:37:32;;;;;;;1.00;1.00;;;;;;;;;;6305316;22;20116;-86
2020/12/05 04:39:58;;;;;;;0.98;0.70;;;;;;;;;;6307188;22;20458;-86
2020/12/05 04:42:24;;;;;;;1.13;1.00;;;;;;;;;;6307381;22;20047;-86
2020/12/05 04:44:50;;;;;;;0.93;0.88;;;;;;;;;;6305298;22;20003;-86
2020/12/05 04:47:17;;;;;;;1.13;0.75;;;;;;;;;;6306479;22;20506;-86
2020/12/05 04:49:43;;;;;;;0.80;0.80;;;;;;;;;;6304820;22;20008;-86
2020/12/05 04:52:24;;;;;;;0.98;0.77;;;;;;;;;;6307860;22;20026;-86
2020/12/05 04:54:54;;;;;;;0.75;0.75;;;;;;;;;;6306090;22;20449;-86
2020/12/05 04:57:24;;;;;;;1.30;0.80;;;;;;;;;;6305767;22;20007;-86
2020/12/05 04:59:51;;;;;;;1.08;0.90;;;;;;;;;;6305446;22;20007;-86
2020/12/05 05:02:18;;;;;;;1.15;1.00;;;;;;;;;;6306731;22;19995;-86
2020/12/05 05:04:45;;;;;;;0.93;0.93;;;;;;;;;;6305406;22;20003;-87
2020/12/05 05:07:11;;;;;;;1.10;1.00;;;;;;;;;;6307416;22;20005;-86
2020/12/05 05:09:45;;;;;;;1.58;1.48;;;;;;;;;;6305398;22;20010;-86
2020/12/05 05:12:11;;;;;;;1.67;1.15;;;;;;;;;;6307614;22;20052;-86
2020/12/05 05:14:37;;;;;;;0.73;0.73;;;;;;;;;;6307452;22;20082;-86
2020/12/05 05:17:04;;;;;;;0.68;0.65;;;;;;;;;;6306756;22;20003;-86
2020/12/05 05:19:33;;;;;;;0.80;0.65;;;;;;;;;;6305937;22;20338;-86
2020/12/05 05:22:00;;;;;;;1.25;1.02;;;;;;;;;;6306291;22;20304;-86
2020/12/05 05:24:27;;;;;;;1.20;0.93;;;;;;;;;;6305980;22;20048;-86
2020/12/05 05:27:00;;;;;;;0.80;0.80;;;;;;;;;;6307250;22;20029;-86
2020/12/05 05:29:28;;;;;;;1.15;1.05;;;;;;;;;;6305300;22;20007;-86
2020/12/05 05:32:01;;;;;;;0.63;0.60;;;;;;;;;;6303970;22;20081;-87
2020/12/05 05:34:27;;;;;;;0.80;0.80;;;;;;;;;;6305269;22;20011;-87
2020/12/05 05:36:53;;;;;;;0.57;0.57;;;;;;;;;;6306990;22;20010;-86
2020/12/05 05:39:19;;;;;;;1.38;1.27;;;;;;;;;;6305684;22;20315;-86
2020/12/05 05:41:47;;;;;;;0.88;0.70;;;;;;;;;;6304798;22;20003;-87
2020/12/05 05:44:14;;;;;;;0.85;0.85;;;;;;;;;;6306991;22;20430;-86
2020/12/05 05:46:44;;;;;;;0.80;0.65;;;;;;;;;;6305483;22;20415;-86
2020/12/05 05:49:11;;;;;;;1.10;0.80;;;;;;;;;;6304380;22;20003;-86
2020/12/05 05:51:41;;;;;;;0.63;0.63;;;;;;;;;;6306491;22;19999;-86
2020/12/05 05:54:31;;;;;;;0.52;0.52;;;;;;;;;;6305936;22;20003;-86
2020/12/05 05:57:11;;;;;;;0.88;0.73;;;;;;;;;;6290464;22;20443;-86
2020/12/05 05:59:41;;;;;;;0.93;0.50;;;;;;;;;;6305272;22;20038;-87
2020/12/05 06:02:09;;;;;;;1.38;1.08;;;;;;;;;;6304851;22;20003;-86
2020/12/05 06:04:39;;;;;;;0.43;0.40;;;;;;;;;;6305318;22;20364;-86
2020/12/05 06:07:09;;;;;;;0.60;0.50;;;;;;;;;;6304990;22;20003;-86
2020/12/05 06:09:35;;;;;;;1.70;0.82;;;;;;;;;;6305740;22;20003;-86
2020/12/05 06:12:02;;;;;;;0.95;0.95;;;;;;;;;;6306872;22;20039;-86
2020/12/05 06:14:29;;;;;;;0.57;0.57;;;;;;;;;;6303856;22;20238;-86
2020/12/05 06:16:57;;;;;;;0.50;0.50;;;;;;;;;;6306474;22;20435;-87
2020/12/05 06:19:23;;;;;;;2.17;0.70;;;;;;;;;;6304143;22;20486;-86
2020/12/05 06:21:51;;;;;;;0.32;0.30;;;;;;;;;;6305171;22;20316;-86
2020/12/05 06:24:24;;;;;;;0.93;0.75;;;;;;;;;;6305679;22;20055;-86
2020/12/05 06:26:50;;;;;;;1.08;0.70;;;;;;;;;;6303934;22;20006;-86
2020/12/05 06:29:17;;;;;;;0.75;0.57;;;;;;;;;;6306828;22;20004;-86
2020/12/05 06:31:44;;;;;;;1.17;0.60;;;;;;;;;;6305169;22;20018;-86
2020/12/05 06:34:10;;;;;;;0.57;0.57;;;;;;;;;;6305516;22;20482;-87
2020/12/05 06:36:38;;;;;;;0.38;0.38;;;;;;;;;;6306440;22;20070;-87
2020/12/05 06:39:07;;;;;;;0.40;0.40;;;;;;;;;;6306237;22;20003;-86
2020/12/05 06:41:33;;;;;;;1.40;1.30;;;;;;;;;;6306642;22;20006;-86
2020/12/05 06:44:10;;;;;;;0.80;0.60;;;;;;;;;;6304666;22;20003;-86
2020/12/05 06:46:45;;;;;;;0.40;0.40;;;;;;;;;;6304604;22;20006;-86
2020/12/05 06:49:11;;;;;;;0.55;0.50;;;;;;;;;;6305981;22;20419;-86
2020/12/05 06:51:37;;;;;;;0.60;0.60;;;;;;;;;;6306530;22;20339;-86
2020/12/05 06:54:03;;;;;;;0.60;0.60;;;;;;;;;;6304581;22;20026;-86
2020/12/05 06:56:29;;;;;;;0.50;0.50;;;;;;;;;;6304138;22;20007;-86
2020/12/05 06:58:55;;;;;;;1.77;0.70;;;;;;;;;;6304581;22;20031;-86
2020/12/05 07:01:31;;;;;;;0.68;0.60;;;;;;;;;;6304381;22;20053;-86
2020/12/05 07:04:17;;;;;;;0.82;0.82;;;;;;;;;;6306064;22;19996;-86
2020/12/05 07:06:46;;;;;;;0.57;0.57;;;;;;;;;;6305687;22;20373;-86
2020/12/05 07:09:12;;;;;;;0.68;0.47;;;;;;;;;;6304169;22;20011;-86
2020/12/05 07:11:38;;;;;;;1.30;0.88;;;;;;;;;;6304537;22;20030;-86
2020/12/05 07:14:04;;;;;;;1.20;1.10;;;;;;;;;;6305841;22;20003;-86
2020/12/05 07:16:39;;;;;;;0.65;0.60;;;;;;;;;;6305658;22;19999;-86
2020/12/05 07:19:05;;;;;;;0.77;0.77;;;;;;;;;;6306139;22;20101;-87
2020/12/05 07:21:31;;;;;;;0.70;0.70;;;;;;;;;;6306015;22;20370;-86
2020/12/05 07:23:57;;;;;;;0.77;0.60;;;;;;;;;;6304204;22;20009;-86
2020/12/05 07:26:24;;;;;;;1.95;0.80;;;;;;;;;;6305890;22;20662;-86
2020/12/05 07:28:51;;;;;;;0.70;0.68;;;;;;;;;;6304067;22;20346;-86
2020/12/05 07:31:18;;;;;;;1.10;1.00;;;;;;;;;;6305579;22;20438;-86
2020/12/05 07:33:44;;;;;;;1.73;1.10;;;;;;;;;;6303736;22;20045;-86
2020/12/05 07:36:11;;;;;;;1.30;0.77;;;;;;;;;;6306412;22;20003;-87
2020/12/05 07:38:38;;;;;;;1.05;0.70;;;;;;;;;;6305968;22;20042;-86
2020/12/05 07:41:11;;;;;;;0.98;0.77;;;;;;;;;;6306280;22;20442;-86
2020/12/05 07:43:38;;;;;;;0.95;0.93;;;;;;;;;;6304975;22;20414;-86
2020/12/05 07:46:05;;;;;;;1.33;1.15;;;;;;;;;;6306463;22;20000;-86
2020/12/05 07:48:32;;;;;;;1.17;1.02;;;;;;;;;;6305033;22;20434;-86
2020/12/05 07:50:58;;;;;;;1.13;0.73;;;;;;;;;;6304278;22;20003;-86
2020/12/05 07:53:31;;;;;;;0.80;0.80;;;;;;;;;;6305764;22;20003;-86
2020/12/05 07:55:58;;;;;;;0.97;0.90;;;;;;;;;;6304483;22;20000;-86
2020/12/05 07:58:25;;;;;;;1.35;1.05;;;;;;;;;;6305299;22;20006;-86
2020/12/05 08:00:54;;;;;;;1.40;1.30;;;;;;;;;;6305878;22;19999;-86
2020/12/05 08:03:39;;;;;;;2.42;2.20;;;;;;;;;;6304219;22;20000;-87
2020/12/05 08:06:20;;;;;;;2.33;1.40;;;;;;;;;;6306182;22;20034;-86
2020/12/05 08:08:48;;;;;;;2.35;1.98;;;;;;;;;;6303343;22;20049;-86
2020/12/05 08:11:14;;;;;;;1.85;1.42;;;;;;;;;;6303551;22;20402;-86
2020/12/05 08:13:40;;;;;;;1.55;1.38;;;;;;;;;;6303466;22;20094;-86
2020/12/05 08:16:07;;;;;;;1.15;1.05;;;;;;;;;;6305634;22;20010;-87
2020/12/05 08:18:34;;;;;;;1.65;1.27;;;;;;;;;;6305651;22;20003;-86
2020/12/05 08:21:01;;;;;;;2.20;2.00;;;;;;;;;;6303286;22;20010;-86
2020/12/05 08:23:32;;;;;;;1.33;1.23;;;;;;;;;;6303585;22;20061;-86
2020/12/05 08:26:00;;;;;;;2.08;1.60;;;;;;;;;;6305968;22;19995;-86
2020/12/05 08:28:27;;;;;;;1.50;1.40;;;;;;;;;;6305389;22;19995;-86
2020/12/05 08:30:54;;;;;;;2.17;1.90;;;;;;;;;;6305382;22;20006;-86
2020/12/05 08:33:21;;;;;;;2.00;1.60;;;;;;;;;;6304827;22;20350;-85
2020/12/05 08:35:47;;;;;;;2.85;1.92;;;;;;;;;;6305052;22;19999;-86
2020/12/05 08:38:15;;;;;;;1.63;1.35;;;;;;;;;;6305972;22;20011;-86
2020/12/05 08:40:41;;;;;;;2.30;2.10;;;;;;;;;;6307465;22;20025;-86
2020/12/05 08:43:07;;;;;;;2.55;1.80;;;;;;;;;;6304733;22;20009;-87
2020/12/05 08:45:38;;;;;;;2.28;1.85;;;;;;;;;;6306752;22;20001;-86
2020/12/05 08:48:14;;;;;;;2.35;2.13;;;;;;;;;;6307258;22;20007;-86
2020/12/05 08:50:40;;;;;;;2.15;1.77;;;;;;;;;;6306964;22;20064;-86
2020/12/05 08:53:06;;;;;;;2.05;1.65;;;;;;;;;;6305782;22;20006;-86
2020/12/05 08:55:32;;;;;;;2.03;1.90;;;;;;;;;;6307537;22;20003;-86
2020/12/05 08:58:00;;;;;;;3.92;2.58;;;;;;;;;;6304916;22;20007;-86
2020/12/05 09:00:26;;;;;;;2.63;2.10;;;;;;;;;;6304505;22;20609;-86
2020/12/05 09:02:52;;;;;;;3.10;2.08;;;;;;;;;;6305636;22;20003;-86
2020/12/05 09:05:19;;;;;;;1.80;1.70;;;;;;;;;;6304646;22;20003;-86
2020/12/05 09:07:52;;;;;;;3.03;1.55;;;;;;;;;;6306723;22;20006;-86
2020/12/05 09:10:18;;;;;;;2.85;2.17;;;;;;;;;;6306574;22;19999;-86
2020/12/05 09:12:44;;;;;;;2.90;2.25;;;;;;;;;;6304818;22;20003;-86
2020/12/05 09:15:10;;;;;;;2.38;2.17;;;;;;;;;;6306905;22;20027;-86
2020/12/05 09:17:36;;;;;;;2.47;2.28;;;;;;;;;;6306358;22;20011;-86
2020/12/05 09:20:28;;;;;;;2.17;1.98;;;;;;;;;;6306989;22;20007;-87
2020/12/05 09:22:56;;;;;;;2.40;2.08;;;;;;;;;;6298249;22;20003;-86
2020/12/05 09:25:26;;;;;;;4.50;3.22;;;;;;;;;;6304279;22;20073;-86
2020/12/05 09:27:52;;;;;;;3.17;2.80;;;;;;;;;;6306644;22;20052;-87
2020/12/05 09:30:19;;;;;;;2.92;2.10;;;;;;;;;;6304821;22;20038;-86
2020/12/05 09:32:49;;;;;;;3.38;3.08;;;;;;;;;;6305002;22;20027;-86
2020/12/05 09:35:16;;;;;;;2.67;2.42;;;;;;;;;;6305059;22;20517;-86
2020/12/05 09:37:42;;;;;;;2.53;2.22;;;;;;;;;;6305097;22;20033;-86
2020/12/05 09:40:11;;;;;;;3.33;3.03;;;;;;;;;;6304869;22;20007;-86
2020/12/05 09:42:37;;;;;;;2.53;1.95;;;;;;;;;;6305271;22;20003;-87
2020/12/05 09:45:04;;;;;;;2.10;2.00;;;;;;;;;;6306404;22;19995;-86
2020/12/05 09:47:30;;;;;;;2.22;1.73;;;;;;;;;;6305122;22;20027;-86
2020/12/05 09:49:56;;;;;;;2.55;2.15;;;;;;;;;;6306830;22;20003;-86
2020/12/05 09:52:22;;;;;;;3.13;2.55;;;;;;;;;;6305110;22;20007;-86
2020/12/05 09:54:49;;;;;;;1.75;1.65;;;;;;;;;;6304773;22;20003;-86
2020/12/05 09:57:15;;;;;;;4.85;2.30;;;;;;;;;;6305391;22;20324;-86
2020/12/05 09:59:42;;;;;;;3.05;2.10;;;;;;;;;;6306535;22;20006;-86
2020/12/05 10:02:09;;;;;;;2.22;2.05;;;;;;;;;;6304935;22;20006;-86
2020/12/05 10:04:35;;;;;;;2.08;1.92;;;;;;;;;;6306179;22;20003;-86
2020/12/05 10:07:01;;;;;;;2.97;1.80;;;;;;;;;;6304883;22;19999;-86
2020/12/05 10:09:27;;;;;;;2.55;2.35;;;;;;;;;;6304935;22;20007;-86
2020/12/05 10:11:53;;;;;;;3.58;2.78;;;;;;;;;;6304339;22;20003;-87
2020/12/05 10:14:20;;;;;;;1.88;1.77;;;;;;;;;;6307083;22;20003;-86
2020/12/05 10:16:46;;;;;;;2.55;2.15;;;;;;;;;;6305413;22;20457;-87
2020/12/05 10:19:12;;;;;;;3.70;2.40;;;;;;;;;;6305643;22;20014;-86
2020/12/05 10:21:38;;;;;;;2.55;2.30;;;;;;;;;;6305142;22;20000;-86
2020/12/05 10:24:04;;;;;;;2.08;1.50;;;;;;;;;;6306753;22;19999;-85
2020/12/05 10:26:30;;;;;;;1.30;1.20;;;;;;;;;;6305073;22;19995;-86
2020/12/05 10:28:56;;;;;;;1.92;1.77;;;;;;;;;;6304103;22;20021;-86
2020/12/05 10:31:22;;;;;;;2.85;2.40;;;;;;;;;;6304795;22;20034;-86
2020/12/05 10:33:48;;;;;;;2.28;2.05;;;;;;;;;;6304019;22;20350;-86
2020/12/05 10:36:23;;;;;;;1.50;1.33;;;;;;;;;;6305808;22;20074;-86
2020/12/05 10:38:49;;;;;;;2.05;1.42;;;;;;;;;;6304746;22;20035;-87
2020/12/05 10:41:16;;;;;;;1.58;1.48;;;;;;;;;;6305032;22;20419;-86
2020/12/05 10:43:42;;;;;;;1.65;1.55;;;;;;;;;;6304786;22;20053;-86
2020/12/05 10:46:08;;;;;;;2.13;1.77;;;;;;;;;;6304566;22;19999;-86
2020/12/05 10:48:34;;;;;;;2.03;1.35;;;;;;;;;;6304171;22;20009;-87
2020/12/05 10:51:01;;;;;;;1.67;1.40;;;;;;;;;;6305739;22;20022;-86
2020/12/05 10:53:27;;;;;;;2.22;2.03;;;;;;;;;;6304149;22;20003;-87
2020/12/05 10:55:53;;;;;;;2.53;1.83;;;;;;;;;;6306488;22;20074;-87
2020/12/05 10:58:20;;;;;;;3.22;1.42;;;;;;;;;;6304359;22;20427;-86
2020/12/05 11:00:47;;;;;;;1.63;1.52;;;;;;;;;;6305827;22;20030;-86
2020/12/05 11:03:14;;;;;;;1.63;1.15;;;;;;;;;;6305920;22;20007;-86
2020/12/05 11:05:40;;;;;;;2.17;1.67;;;;;;;;;;6306351;22;20006;-86
2020/12/05 11:08:06;;;;;;;2.25;1.52;;;;;;;;;;6304196;22;20003;-86
2020/12/05 11:10:32;;;;;;;2.25;1.42;;;;;;;;;;6303571;22;20015;-86
2020/12/05 11:12:58;;;;;;;2.00;1.83;;;;;;;;;;6305607;22;20070;-86
2020/12/05 11:15:24;;;;;;;1.40;1.13;;;;;;;;;;6305186;22;20003;-86
2020/12/05 11:17:50;;;;;;;1.55;1.42;;;;;;;;;;6303720;22;20014;-87
2020/12/05 11:20:19;;;;;;;1.65;0.90;;;;;;;;;;6305738;22;20391;-86
2020/12/05 11:22:45;;;;;;;1.67;1.33;;;;;;;;;;6305965;22;20027;-86
2020/12/05 11:25:13;;;;;;;1.40;1.30;;;;;;;;;;6305770;22;19999;-87
2020/12/05 11:27:39;;;;;;;1.23;1.13;;;;;;;;;;6304056;22;20082;-86
2020/12/05 11:30:05;;;;;;;1.05;0.95;;;;;;;;;;6302720;22;20308;-87
2020/12/05 11:32:31;;;;;;;1.65;1.55;;;;;;;;;;6302874;22;20011;-86
2020/12/05 11:34:57;;;;;;;1.85;1.35;;;;;;;;;;6305551;22;20385;-86
2020/12/05 11:37:23;;;;;;;2.72;1.80;;;;;;;;;;6304493;22;20004;-86
2020/12/05 11:39:49;;;;;;;1.65;1.25;;;;;;;;;;6304810;22;20041;-86
2020/12/05 11:42:15;;;;;;;2.08;1.05;;;;;;;;;;6305256;22;20002;-86
2020/12/05 11:44:41;;;;;;;1.70;1.60;;;;;;;;;;6303711;22;20346;-86
2020/12/05 11:47:07;;;;;;;2.50;1.00;;;;;;;;;;6305073;22;20326;-86
2020/12/05 11:49:33;;;;;;;1.10;1.00;;;;;;;;;;6303628;22;20014;-86
2020/12/05 11:52:01;;;;;;;2.50;1.92;;;;;;;;;;6305506;22;20003;-86
2020/12/05 11:54:27;;;;;;;1.42;1.33;;;;;;;;;;6305458;22;20466;-86
2020/12/05 11:56:53;;;;;;;0.98;0.80;;;;;;;;;;6305849;22;20377;-86
2020/12/05 11:59:19;;;;;;;2.17;1.30;;;;;;;;;;6303258;22;20007;-86
2020/12/05 12:01:45;;;;;;;1.05;0.95;;;;;;;;;;6304783;22;20000;-86
2020/12/05 12:04:11;;;;;;;1.85;1.67;;;;;;;;;;6304812;22;19999;-86
2020/12/05 12:06:38;;;;;;;1.50;0.95;;;;;;;;;;6303629;22;20004;-86
2020/12/05 12:09:07;;;;;;;0.85;0.60;;;;;;;;;;6305735;22;20058;-86
2020/12/05 12:11:33;;;;;;;1.38;0.95;;;;;;;;;;6306061;22;20004;-86
2020/12/05 12:13:59;;;;;;;1.27;1.17;;;;;;;;;;6307035;22;19999;-86
2020/12/05 12:16:25;;;;;;;1.73;1.48;;;;;;;;;;6306930;22;20004;-85
2020/12/05 12:18:53;;;;;;;0.50;0.50;;;;;;;;;;6306579;22;20007;-86
2020/12/05 12:21:23;;;;;;;1.33;1.17;;;;;;;;;;6305966;22;20028;-86
2020/12/05 12:23:50;;;;;;;0.80;0.80;;;;;;;;;;6307090;22;19999;-86
2020/12/05 12:26:16;;;;;;;1.13;1.00;;;;;;;;;;6305394;22;20009;-86
2020/12/05 12:28:42;;;;;;;1.13;0.70;;;;;;;;;;6305771;22;20438;-86
2020/12/05 12:31:08;;;;;;;0.88;0.80;;;;;;;;;;6306031;22;20010;-86
2020/12/05 12:33:35;;;;;;;1.20;1.13;;;;;;;;;;6304287;22;20015;-86
2020/12/05 12:36:01;;;;;;;1.95;1.42;;;;;;;;;;6306804;22;20144;-86
2020/12/05 12:38:28;;;;;;;1.35;1.05;;;;;;;;;;6304509;22;20112;-86
2020/12/05 12:40:54;;;;;;;1.55;1.15;;;;;;;;;;6308278;22;20425;-86
2020/12/05 12:43:20;;;;;;;1.10;0.80;;;;;;;;;;6307068;22;20116;-87
2020/12/05 12:45:46;;;;;;;1.95;1.75;;;;;;;;;;6306389;22;20046;-85
2020/12/05 12:50:40;;;;;;;1.30;1.20;;;;;;;;;;6307036;22;20035;-86
2020/12/05 12:53:06;;;;;;;0.63;0.63;;;;;;;;;;6304570;22;20010;-87
2020/12/05 12:55:33;;;;;;;1.00;0.90;;;;;;;;;;6304634;22;20007;-86
2020/12/05 12:58:08;;;;;;;0.90;0.60;;;;;;;;;;6306067;22;20056;-86
2020/12/05 13:00:34;;;;;;;1.42;1.33;;;;;;;;;;6305524;22;20005;-86
2020/12/05 13:03:00;;;;;;;0.70;0.70;;;;;;;;;;6305378;22;20004;-86
2020/12/05 13:05:26;;;;;;;1.25;0.80;;;;;;;;;;6307313;22;20133;-85
2020/12/05 13:07:52;;;;;;;1.38;1.23;;;;;;;;;;6305609;22;20369;-86
2020/12/05 13:10:18;;;;;;;0.82;0.60;;;;;;;;;;6306714;22;20422;-86
2020/12/05 13:12:46;;;;;;;2.53;0.80;;;;;;;;;;6307532;22;20077;-86
2020/12/05 13:15:12;;;;;;;1.67;1.20;;;;;;;;;;6304706;22;20031;-86
2020/12/05 13:17:38;;;;;;;1.15;1.05;;;;;;;;;;6306312;22;20434;-86
2020/12/05 13:20:04;;;;;;;1.05;1.02;;;;;;;;;;6304901;22;20431;-86
2020/12/05 13:22:31;;;;;;;1.88;0.80;;;;;;;;;;6306445;22;19999;-86
2020/12/05 13:24:57;;;;;;;0.80;0.60;;;;;;;;;;6305069;22;20053;-86
2020/12/05 13:27:23;;;;;;;0.60;0.60;;;;;;;;;;6306182;22;20021;-86
2020/12/05 13:29:49;;;;;;;0.73;0.73;;;;;;;;;;6306811;22;19996;-86
2020/12/05 13:32:15;;;;;;;0.70;0.63;;;;;;;;;;6303502;22;20015;-86
2020/12/05 13:34:41;;;;;;;0.77;0.60;;;;;;;;;;6305214;22;20035;-87
2020/12/05 13:37:07;;;;;;;0.70;0.70;;;;;;;;;;6306834;22;20070;-86
2020/12/05 13:39:34;;;;;;;1.38;1.00;;;;;;;;;;6305178;22;20023;-86
2020/12/05 13:42:00;;;;;;;1.00;0.90;;;;;;;;;;6306369;22;20056;-86
2020/12/05 13:44:27;;;;;;;1.55;1.45;;;;;;;;;;6306148;22;20030;-86
2020/12/05 13:46:55;;;;;;;0.85;0.75;;;;;;;;;;6306209;22;20440;-86
2020/12/05 13:49:21;;;;;;;1.27;0.88;;;;;;;;;;6305364;22;19991;-86
2020/12/05 13:51:47;;;;;;;0.93;0.80;;;;;;;;;;6307007;22;20476;-86
2020/12/05 13:54:13;;;;;;;1.23;0.88;;;;;;;;;;6306048;22;20023;-85
2020/12/05 13:56:41;;;;;;;0.68;0.68;;;;;;;;;;6304928;22;20080;-86
2020/12/05 13:59:07;;;;;;;0.82;0.70;;;;;;;;;;6304456;22;20011;-86
2020/12/05 14:01:33;;;;;;;0.60;0.60;;;;;;;;;;6305828;22;20002;-86
2020/12/05 14:04:00;;;;;;;0.95;0.88;;;;;;;;;;6304753;22;20006;-86
2020/12/05 14:06:26;;;;;;;1.27;1.13;;;;;;;;;;6304943;22;20007;-86
2020/12/05 14:08:52;;;;;;;0.55;0.55;;;;;;;;;;6306857;22;20007;-87
2020/12/05 14:11:22;;;;;;;1.65;0.60;;;;;;;;;;6305875;22;20003;-86
2020/12/05 14:13:48;;;;;;;1.33;0.70;;;;;;;;;;6304184;22;20011;-86
2020/12/05 14:16:15;;;;;;;0.88;0.80;;;;;;;;;;6304434;22;20007;-86
2020/12/05 14:18:41;;;;;;;0.90;0.70;;;;;;;;;;6304458;22;20086;-86
2020/12/05 14:21:07;;;;;;;0.77;0.50;;;;;;;;;;6305767;22;20327;-86
2020/12/05 14:23:33;;;;;;;0.55;0.55;;;;;;;;;;6305925;22;20350;-86
2020/12/05 14:25:59;;;;;;;1.00;0.80;;;;;;;;;;6304996;22;20003;-87
2020/12/05 14:28:26;;;;;;;0.70;0.70;;;;;;;;;;6307056;22;20062;-87
2020/12/05 14:30:52;;;;;;;1.27;1.15;;;;;;;;;;6306341;22;20004;-86
2020/12/05 14:33:20;;;;;;;0.98;0.90;;;;;;;;;;6305631;22;20011;-86
2020/12/05 14:35:46;;;;;;;0.60;0.60;;;;;;;;;;6304069;22;20324;-86
2020/12/05 14:38:12;;;;;;;0.82;0.70;;;;;;;;;;6306209;22;20078;-86
2020/12/05 14:40:38;;;;;;;1.08;0.98;;;;;;;;;;6306724;22;20013;-86
2020/12/05 14:43:04;;;;;;;0.85;0.63;;;;;;;;;;6304260;22;20382;-87
2020/12/05 14:45:30;;;;;;;1.48;0.70;;;;;;;;;;6304942;22;20010;-86